Accueil
METAR-TAF:

METAR-TAF

Aéroports :

Cranfield, Angleterre

latitude: 52-04N, longitude: 000-37W, altitude: 111 m

Observation

Le bulletin a été fait il y a 6 heures et 12 minutes, à 16:20 UTC
Vent 10 kt de ouest, variant entre sud-ouest et ouest/nord-ouest
Température 9°C
Humidité 81%
Pression 1016 hPa
Visibilité 10 km ou plus
Nuages épars à une hauteur de 3000 ft

METAR: EGTC 271620Z 26010KT 230V290 9999 SCT030 09/06 Q1016

Heure: 23:32 (22:32 UTC)

Prévision

Le bulletin a été fait il y a 8 heures et 27 minutes, à 14:05 UTC
Prévision valable du 27 à 15 UTC au 27 à 18 UTC
Vent 9 kt de ouest/nord-ouest
Visibilité 10 km ou plus
Nuages épars à une hauteur de 3000 ft
Probabilité 30% :
Temporairement
du 27 à 15 UTC au 27 à 18 UTC
Visibilité: 7000 m
Nuages fragmentés à une hauteur de 1400 ft
averses de pluie

TAF: EGTC 271405Z 2715/2718 29009KT 9999 SCT030 PROB30 TEMPO 2715/2718 7000 SHRA BKN014

Observations et prévisions météorologiques de plus de 4000 aéroports (messages METAR et TAF).

Les stations disponibles sont représentées par des disques jaunes et rouges sur la carte.

Passer la souris dessus pour voir le nom de la station.

Cliquer dessus pour voir les observations et prévisions météorologiques.

Pour changer de carte: cliquez sur les boutons verts avec une croix noire pour zoomer, sur le bouton vert avec un tiret pour effectuer un zoom arrière, ou sur les flèches vertes pour les cartes adjacentes.


METAR-TAF: